createdAt,value
2022-12-11T00:00:06.675Z,99460.50
2022-12-11T00:02:33.272Z,99460.53
2022-12-11T00:04:59.778Z,99460.53
2022-12-11T00:07:26.901Z,99457.16
2022-12-11T00:09:53.437Z,99454.56
2022-12-11T00:12:19.940Z,99451.63
2022-12-11T00:14:46.406Z,99453.38
2022-12-11T00:17:12.924Z,99446.03
2022-12-11T00:19:39.460Z,99452.31
2022-12-11T00:22:05.977Z,99444.50
2022-12-11T00:24:32.634Z,99450.25
2022-12-11T00:27:00.237Z,99449.88
2022-12-11T00:29:27.292Z,99448.81
2022-12-11T00:31:53.889Z,99450.50
2022-12-11T00:34:20.521Z,99449.66
2022-12-11T00:36:47.011Z,99448.69
2022-12-11T00:39:13.548Z,99443.03
2022-12-11T00:41:40.115Z,99427.53
2022-12-11T00:44:06.678Z,99424.78
2022-12-11T00:46:33.423Z,99427.72
2022-12-11T00:48:59.889Z,99422.34
2022-12-11T00:51:26.382Z,99412.59
2022-12-11T00:53:52.932Z,99423.97
2022-12-11T00:56:22.091Z,99420.88
2022-12-11T00:58:49.527Z,99414.03
2022-12-11T01:01:21.443Z,99412.22
2022-12-11T01:03:48.849Z,99404.38
2022-12-11T01:06:22.018Z,99398.66
2022-12-11T01:08:48.821Z,99400.63
2022-12-11T01:11:16.778Z,99399.66
2022-12-11T01:13:43.875Z,99394.06
2022-12-11T01:16:15.939Z,99395.03
2022-12-11T01:18:43.045Z,99387.09
2022-12-11T01:21:12.272Z,99385.75
2022-12-11T01:23:39.374Z,99390.44
2022-12-11T01:26:07.255Z,99403.78
2022-12-11T01:28:34.430Z,99402.16
2022-12-11T01:31:01.644Z,99394.53
2022-12-11T01:33:28.282Z,99391.41
2022-12-11T01:35:54.821Z,99396.53
2022-12-11T01:38:21.379Z,99401.38
2022-12-11T01:40:49.948Z,99403.41
2022-12-11T01:43:16.555Z,99400.56
2022-12-11T01:45:46.203Z,99405.94
2022-12-11T01:48:18.688Z,99400.28
2022-12-11T01:50:49.844Z,99403.03
2022-12-11T01:53:23.454Z,99395.09
2022-12-11T01:55:53.623Z,99401.22
2022-12-11T01:58:23.134Z,99394.63
2022-12-11T02:00:49.747Z,99390.69
2022-12-11T02:03:16.500Z,99385.59
2022-12-11T02:05:43.171Z,99376.78
2022-12-11T02:08:09.941Z,99384.97
2022-12-11T02:10:54.738Z,99372.50
2022-12-11T02:13:34.242Z,99360.78
2022-12-11T02:16:14.853Z,99360.72
2022-12-11T02:19:07.997Z,99343.59
2022-12-11T02:21:41.137Z,99334.06
2022-12-11T02:24:22.356Z,99335.97
2022-12-11T02:27:21.322Z,99332.03
2022-12-11T02:30:03.104Z,99332.91
2022-12-11T02:32:44.102Z,99326.78
2022-12-11T02:35:14.020Z,99328.63
2022-12-11T02:37:43.746Z,99327.00
2022-12-11T02:40:14.791Z,99323.34
2022-12-11T02:42:44.057Z,99327.53
2022-12-11T02:45:12.904Z,99315.53
2022-12-11T02:47:39.987Z,99311.03
2022-12-11T02:50:11.358Z,99311.34
2022-12-11T02:52:41.468Z,99320.25
2022-12-11T02:55:10.327Z,99316.13
2022-12-11T02:57:46.363Z,99312.44
2022-12-11T03:00:13.843Z,99306.50
2022-12-11T03:02:41.380Z,99298.28
2022-12-11T03:05:09.662Z,99292.25
2022-12-11T03:07:40.036Z,99293.72
2022-12-11T03:10:10.057Z,99282.69
2022-12-11T03:12:40.675Z,99280.13
2022-12-11T03:15:11.265Z,99290.19
2022-12-11T03:17:52.456Z,99295.84
2022-12-11T03:20:35.356Z,99294.56
2022-12-11T03:23:11.033Z,99289.47
2022-12-11T03:25:53.355Z,99303.88
2022-12-11T03:28:27.212Z,99302.25
2022-12-11T03:30:54.690Z,99291.16
2022-12-11T03:33:26.739Z,99299.31
2022-12-11T03:36:01.125Z,99298.78
2022-12-11T03:38:51.530Z,99308.97
2022-12-11T03:41:21.463Z,99310.16
2022-12-11T03:43:52.020Z,99310.22
2022-12-11T03:46:22.553Z,99317.66
2022-12-11T03:48:50.578Z,99320.25
2022-12-11T03:51:17.916Z,99318.72
2022-12-11T03:53:46.078Z,99312.53
2022-12-11T03:56:15.836Z,99310.25
2022-12-11T03:58:42.348Z,99309.16
2022-12-11T04:01:10.569Z,99307.97
2022-12-11T04:03:38.540Z,99292.16
2022-12-11T04:06:05.199Z,99288.94
2022-12-11T04:08:32.057Z,99286.28
2022-12-11T04:11:17.273Z,99290.81
2022-12-11T04:13:43.852Z,99281.41
2022-12-11T04:16:10.918Z,99269.41
2022-12-11T04:18:56.157Z,99264.09
2022-12-11T04:21:40.969Z,99265.91
2022-12-11T04:24:16.776Z,99274.22
2022-12-11T04:26:47.645Z,99266.84
2022-12-11T04:29:15.300Z,99258.38
2022-12-11T04:31:41.970Z,99251.03
2022-12-11T04:34:08.703Z,99248.78
2022-12-11T04:36:35.769Z,99244.25
2022-12-11T04:39:02.302Z,99236.13
2022-12-11T04:41:28.873Z,99231.22
2022-12-11T04:43:55.390Z,99230.28
2022-12-11T04:46:23.863Z,99217.31
2022-12-11T04:48:57.030Z,99213.53
2022-12-11T04:51:24.815Z,99223.38
2022-12-11T04:53:51.324Z,99222.22
2022-12-11T04:56:17.925Z,99214.13
2022-12-11T04:58:45.558Z,99215.13
2022-12-11T05:01:17.895Z,99214.78
2022-12-11T05:03:45.215Z,99206.00
2022-12-11T05:06:13.416Z,99198.97
2022-12-11T05:08:42.305Z,99216.78
2022-12-11T05:11:12.133Z,99210.59
2022-12-11T05:13:39.463Z,99208.78
2022-12-11T05:16:08.832Z,99203.00
2022-12-11T05:18:35.694Z,99205.38
2022-12-11T05:21:05.697Z,99200.31
2022-12-11T05:23:32.329Z,99197.16
2022-12-11T05:26:01.833Z,99189.78
2022-12-11T05:28:29.942Z,99188.50
2022-12-11T05:31:01.969Z,99177.97
2022-12-11T05:33:29.096Z,99173.06
2022-12-11T05:35:55.754Z,99174.88
2022-12-11T05:38:23.046Z,99171.69
2022-12-11T05:41:01.052Z,99167.06
2022-12-11T05:43:29.876Z,99172.22
2022-12-11T05:45:57.021Z,99168.06
2022-12-11T05:48:23.568Z,99170.75
2022-12-11T05:51:00.730Z,99158.88
2022-12-11T05:53:27.789Z,99168.59
2022-12-11T05:55:54.415Z,99155.44
2022-12-11T05:58:21.721Z,99147.81
2022-12-11T06:00:48.330Z,99147.19
2022-12-11T06:03:15.151Z,99139.09
2022-12-11T06:05:42.721Z,99144.00
2022-12-11T06:08:09.389Z,99139.66
2022-12-11T06:10:36.025Z,99139.28
2022-12-11T06:13:02.762Z,99136.50
2022-12-11T06:15:29.767Z,99155.06
2022-12-11T06:17:56.244Z,99150.16
2022-12-11T06:20:22.756Z,99141.75
2022-12-11T06:22:49.360Z,99145.34
2022-12-11T06:25:16.386Z,99143.13
2022-12-11T06:27:42.851Z,99151.34
2022-12-11T06:30:09.931Z,99141.97
2022-12-11T06:32:36.863Z,99133.81
2022-12-11T06:35:03.566Z,99123.50
2022-12-11T06:37:30.058Z,99118.75
2022-12-11T06:39:56.507Z,99115.16
2022-12-11T06:42:22.968Z,99111.50
2022-12-11T06:44:49.464Z,99106.75
2022-12-11T06:47:16.024Z,99095.88
2022-12-11T06:49:42.570Z,99097.63
2022-12-11T06:52:11.563Z,99101.75
2022-12-11T06:54:41.530Z,99090.38
2022-12-11T06:57:09.445Z,99091.38
2022-12-11T06:59:36.021Z,99096.94
2022-12-11T07:02:03.072Z,99093.44
2022-12-11T07:04:30.686Z,99088.06
2022-12-11T07:06:57.588Z,99090.13
2022-12-11T07:09:24.804Z,99094.25
2022-12-11T07:11:52.352Z,99098.50
2022-12-11T07:14:20.120Z,99094.56
2022-12-11T07:16:46.785Z,99100.66
2022-12-11T07:19:13.550Z,99104.16
2022-12-11T07:21:40.073Z,99104.84
2022-12-11T07:24:07.275Z,99102.78
2022-12-11T07:26:33.842Z,99085.22
2022-12-11T07:29:00.920Z,99091.72
2022-12-11T07:31:29.304Z,99092.88
2022-12-11T07:33:57.911Z,99091.03
2022-12-11T07:36:25.452Z,99095.44
2022-12-11T07:38:52.104Z,99091.41
2022-12-11T07:41:18.983Z,99099.75
2022-12-11T07:43:46.767Z,99103.88
2022-12-11T07:46:20.072Z,99102.16
2022-12-11T07:48:48.635Z,99099.09
2022-12-11T07:51:19.869Z,99090.41
2022-12-11T07:53:48.658Z,99086.94
2022-12-11T07:56:16.476Z,99089.88
2022-12-11T07:58:43.606Z,99083.50
2022-12-11T08:01:15.060Z,99076.28
2022-12-11T08:03:42.165Z,99073.28
2022-12-11T08:06:09.536Z,99070.19
2022-12-11T08:08:36.487Z,99060.75
2022-12-11T08:11:04.266Z,99080.41
2022-12-11T08:13:30.850Z,99077.25
2022-12-11T08:15:57.461Z,99069.00
2022-12-11T08:18:24.329Z,99058.78
2022-12-11T08:20:51.040Z,99062.00
2022-12-11T08:23:17.640Z,99050.97
2022-12-11T08:25:44.146Z,99048.09
2022-12-11T08:28:10.634Z,99044.09
2022-12-11T08:30:39.509Z,99032.06
2022-12-11T08:33:06.939Z,99042.09
2022-12-11T08:35:33.470Z,99037.25
2022-12-11T08:37:59.980Z,99049.41
2022-12-11T08:40:26.451Z,99052.59
2022-12-11T08:42:52.980Z,99045.06
2022-12-11T08:45:19.524Z,99049.16
2022-12-11T08:47:46.154Z,99046.44
2022-12-11T08:50:12.625Z,99044.41
2022-12-11T08:52:39.183Z,99036.56
2022-12-11T08:55:06.501Z,99048.44
2022-12-11T08:57:33.035Z,99035.63
2022-12-11T08:59:59.625Z,99039.66
2022-12-11T09:02:26.614Z,99033.97
2022-12-11T09:04:53.167Z,99031.88
2022-12-11T09:07:19.686Z,99038.13
2022-12-11T09:09:46.221Z,99044.78
2022-12-11T09:12:12.719Z,99057.91
2022-12-11T09:14:39.273Z,99054.16
2022-12-11T09:17:06.060Z,99042.59
2022-12-11T09:19:32.759Z,99039.47
2022-12-11T09:21:59.328Z,99046.13
2022-12-11T09:24:26.376Z,99039.25
2022-12-11T09:26:54.533Z,99038.09
2022-12-11T09:29:21.079Z,99045.63
2022-12-11T09:31:49.086Z,99039.44
2022-12-11T09:34:15.738Z,99040.38
2022-12-11T09:36:42.661Z,99045.03
2022-12-11T09:39:10.861Z,99042.38
2022-12-11T09:41:40.583Z,99052.31
2022-12-11T09:44:41.090Z,99047.69
2022-12-11T09:47:19.867Z,99046.63
2022-12-11T09:49:49.257Z,99038.56
2022-12-11T09:52:20.276Z,99039.88
2022-12-11T09:54:57.826Z,99040.94
2022-12-11T09:57:32.778Z,99041.03
2022-12-11T10:00:13.981Z,99034.31
2022-12-11T10:03:17.785Z,99038.47
2022-12-11T10:05:51.264Z,99030.34
2022-12-11T10:08:23.422Z,99023.78
2022-12-11T10:11:16.103Z,99026.91
2022-12-11T10:14:17.836Z,99016.41
2022-12-11T10:16:51.889Z,99019.63
2022-12-11T10:19:24.489Z,99011.16
2022-12-11T10:21:52.704Z,99002.19
2022-12-11T10:25:07.685Z,98993.47
2022-12-11T10:27:21.842Z,98992.66
2022-12-11T10:30:01.288Z,98985.81
2022-12-11T10:32:56.763Z,98962.13
2022-12-11T10:35:28.981Z,98955.63
2022-12-11T10:38:02.558Z,98946.06
2022-12-11T10:40:30.952Z,98952.72
2022-12-11T10:42:57.820Z,98948.44
2022-12-11T10:45:25.032Z,98945.25
2022-12-11T10:48:03.133Z,98941.38
2022-12-11T10:50:29.713Z,98934.94
2022-12-11T10:52:57.624Z,98928.75
2022-12-11T10:55:53.713Z,98928.75
2022-12-11T10:58:24.336Z,98920.44
2022-12-11T11:01:07.800Z,98909.59
2022-12-11T11:03:36.633Z,98920.75
2022-12-11T11:06:17.659Z,98924.31
2022-12-11T11:08:49.039Z,98933.59
2022-12-11T11:11:28.861Z,98929.34
2022-12-11T11:14:05.487Z,98934.09
2022-12-11T11:16:35.109Z,98937.63
2022-12-11T11:19:01.663Z,98929.13
2022-12-11T11:21:30.107Z,98918.00
2022-12-11T11:23:56.904Z,98906.59
2022-12-11T11:26:23.936Z,98903.16
2022-12-11T11:28:53.978Z,98896.28
2022-12-11T11:31:23.211Z,98893.69
2022-12-11T11:34:03.144Z,98887.06
2022-12-11T11:36:33.183Z,98890.84
2022-12-11T11:39:02.721Z,98875.72
2022-12-11T11:41:29.152Z,98869.53
2022-12-11T11:43:59.744Z,98852.22
2022-12-11T11:46:43.219Z,98843.72
2022-12-11T11:49:31.777Z,98852.50
2022-12-11T11:52:15.873Z,98854.34
2022-12-11T11:54:58.595Z,98859.22
2022-12-11T11:57:35.452Z,98853.47
2022-12-11T12:00:10.711Z,98841.59
2022-12-11T12:02:37.760Z,98835.25
2022-12-11T12:05:04.822Z,98834.50
2022-12-11T12:08:12.874Z,98842.94
2022-12-11T12:10:45.225Z,98830.19
2022-12-11T12:13:49.530Z,98835.66
2022-12-11T12:16:53.679Z,98827.00
2022-12-11T12:20:08.216Z,98826.63
2022-12-11T12:22:50.664Z,98828.78
2022-12-11T12:25:33.138Z,98823.88
2022-12-11T12:28:05.650Z,98815.53
2022-12-11T12:30:45.481Z,98815.28
2022-12-11T12:33:27.660Z,98816.91
2022-12-11T12:36:07.063Z,98816.97
2022-12-11T12:38:55.096Z,98814.94
2022-12-11T12:41:38.296Z,98819.97
2022-12-11T12:44:13.713Z,98819.28
2022-12-11T12:46:50.369Z,98807.53
2022-12-11T12:49:30.900Z,98802.75
2022-12-11T12:51:58.976Z,98801.78
2022-12-11T12:54:27.670Z,98808.03
2022-12-11T12:56:55.376Z,98804.63
2022-12-11T12:59:24.561Z,98802.84
2022-12-11T13:01:57.537Z,98805.78
2022-12-11T13:04:55.955Z,98810.81
2022-12-11T13:07:29.934Z,98811.56
2022-12-11T13:10:07.950Z,98805.56
2022-12-11T13:12:44.007Z,98813.66
2022-12-11T13:15:43.873Z,98810.59
2022-12-11T13:18:36.657Z,98813.38
2022-12-11T13:21:25.346Z,98811.38
2022-12-11T13:23:52.369Z,98808.25
2022-12-11T13:26:30.636Z,98801.81
2022-12-11T13:28:58.554Z,98792.88
2022-12-11T13:31:35.886Z,98790.38
2022-12-11T13:34:33.015Z,98780.84
2022-12-11T13:37:01.273Z,98776.38
2022-12-11T13:39:31.435Z,98774.22
2022-12-11T13:42:05.597Z,98776.00
2022-12-11T13:44:42.222Z,98769.28
2022-12-11T13:47:14.421Z,98781.44
2022-12-11T13:49:43.419Z,98775.31
2022-12-11T13:52:22.979Z,98783.72
2022-12-11T13:54:51.925Z,98782.59
2022-12-11T13:57:21.447Z,98784.59
2022-12-11T13:59:52.997Z,98789.59
2022-12-11T14:02:40.191Z,98793.72
2022-12-11T14:05:10.357Z,98783.88
2022-12-11T14:07:42.717Z,98785.34
2022-12-11T14:10:18.301Z,98783.00
2022-12-11T14:12:55.835Z,98776.16
2022-12-11T14:15:22.766Z,98772.38
2022-12-11T14:17:51.934Z,98766.25
2022-12-11T14:20:24.628Z,98764.88
2022-12-11T14:22:51.268Z,98763.06
2022-12-11T14:25:27.420Z,98768.06
2022-12-11T14:27:56.250Z,98775.53
2022-12-11T14:30:28.854Z,98783.38
2022-12-11T14:33:04.164Z,98785.28
2022-12-11T14:35:39.087Z,98788.00
2022-12-11T14:38:17.460Z,98787.94
2022-12-11T14:40:48.972Z,98792.06
2022-12-11T14:43:25.611Z,98787.66
2022-12-11T14:45:58.490Z,98780.28
2022-12-11T14:48:54.849Z,98771.81
2022-12-11T14:51:28.625Z,98771.41
2022-12-11T14:53:55.767Z,98775.75
2022-12-11T14:56:28.788Z,98780.94
2022-12-11T14:59:03.007Z,98780.38
2022-12-11T15:01:32.747Z,98774.53
2022-12-11T15:04:30.383Z,98771.72
2022-12-11T15:06:58.305Z,98770.16
2022-12-11T15:09:36.360Z,98772.00
2022-12-11T15:12:18.436Z,98780.06
2022-12-11T15:14:53.240Z,98773.06
2022-12-11T15:17:20.604Z,98778.19
2022-12-11T15:19:51.104Z,98783.03
2022-12-11T15:22:19.698Z,98788.53
2022-12-11T15:24:47.166Z,98789.16
2022-12-11T15:27:37.349Z,98795.66
2022-12-11T15:30:15.998Z,98793.50
2022-12-11T15:32:42.809Z,98795.91
2022-12-11T15:35:52.133Z,98798.06
2022-12-11T15:38:30.581Z,98800.25
2022-12-11T15:40:59.047Z,98792.78
2022-12-11T15:43:27.290Z,98798.72
2022-12-11T15:45:53.906Z,98802.91
2022-12-11T15:48:20.480Z,98802.47
2022-12-11T15:50:47.110Z,98795.19
2022-12-11T15:53:13.707Z,98789.19
2022-12-11T15:55:40.441Z,98793.34
2022-12-11T15:58:15.567Z,98805.00
2022-12-11T16:00:42.120Z,98804.84
2022-12-11T16:03:14.137Z,98813.00
2022-12-11T16:05:41.948Z,98807.88
2022-12-11T16:08:14.994Z,98817.22
2022-12-11T16:10:45.075Z,98818.31
2022-12-11T16:13:12.911Z,98821.25
2022-12-11T16:15:42.345Z,98818.81
2022-12-11T16:18:14.319Z,98812.81
2022-12-11T16:20:42.876Z,98814.75
2022-12-11T16:23:10.491Z,98818.81
2022-12-11T16:25:39.310Z,98813.81
2022-12-11T16:28:07.009Z,98823.97
2022-12-11T16:30:35.893Z,98822.81
2022-12-11T16:33:10.228Z,98823.41
2022-12-11T16:35:38.939Z,98824.91
2022-12-11T16:38:05.457Z,98820.78
2022-12-11T16:40:32.033Z,98828.00
2022-12-11T16:42:58.593Z,98829.13
2022-12-11T16:45:27.065Z,98835.66
2022-12-11T16:47:54.045Z,98842.91
2022-12-11T16:50:21.144Z,98839.84
2022-12-11T16:52:47.812Z,98840.91
2022-12-11T16:55:15.592Z,98844.91
2022-12-11T16:57:42.190Z,98858.25
2022-12-11T17:00:12.111Z,98850.25
2022-12-11T17:02:39.081Z,98845.88
2022-12-11T17:05:06.043Z,98845.00
2022-12-11T17:07:33.379Z,98839.81
2022-12-11T17:10:01.927Z,98842.13
2022-12-11T17:12:29.206Z,98840.41
2022-12-11T17:14:57.190Z,98845.41
2022-12-11T17:17:24.206Z,98848.78
2022-12-11T17:19:50.776Z,98851.31
2022-12-11T17:22:17.480Z,98853.84
2022-12-11T17:24:43.973Z,98861.22
2022-12-11T17:27:10.548Z,98867.94
2022-12-11T17:29:37.056Z,98868.16
2022-12-11T17:32:06.868Z,98870.81
2022-12-11T17:34:38.107Z,98869.22
2022-12-11T17:37:05.489Z,98865.34
2022-12-11T17:39:32.419Z,98861.16
2022-12-11T17:41:59.561Z,98868.34
2022-12-11T17:44:26.762Z,98869.81
2022-12-11T17:46:53.612Z,98866.72
2022-12-11T17:49:20.210Z,98864.06
2022-12-11T17:51:47.945Z,98863.69
2022-12-11T17:54:14.826Z,98859.44
2022-12-11T17:56:41.397Z,98857.69
2022-12-11T17:59:07.964Z,98864.13
2022-12-11T18:01:34.774Z,98870.00
2022-12-11T18:04:01.970Z,98867.47
2022-12-11T18:06:29.704Z,98866.47
2022-12-11T18:08:57.000Z,98870.78
2022-12-11T18:11:24.354Z,98870.88
2022-12-11T18:13:53.102Z,98872.47
2022-12-11T18:16:31.718Z,98866.06
2022-12-11T18:18:58.447Z,98857.78
2022-12-11T18:21:29.269Z,98858.44
2022-12-11T18:23:56.512Z,98848.31
2022-12-11T18:26:23.124Z,98837.56
2022-12-11T18:28:50.783Z,98847.72
2022-12-11T18:31:18.045Z,98850.31
2022-12-11T18:33:46.280Z,98862.09
2022-12-11T18:36:14.898Z,98876.44
2022-12-11T18:38:42.482Z,98878.13
2022-12-11T18:41:14.019Z,98888.13
2022-12-11T18:43:40.913Z,98884.13
2022-12-11T18:46:10.175Z,98886.72
2022-12-11T18:48:37.076Z,98886.53
2022-12-11T18:51:13.103Z,98895.19
2022-12-11T18:53:40.359Z,98906.69
2022-12-11T18:56:10.230Z,98900.09
2022-12-11T18:58:37.663Z,98890.13
2022-12-11T19:01:17.594Z,98901.09
2022-12-11T19:03:44.832Z,98899.47
2022-12-11T19:06:17.753Z,98905.88
2022-12-11T19:08:44.788Z,98901.69
2022-12-11T19:11:18.221Z,98906.50
2022-12-11T19:13:45.170Z,98897.16
2022-12-11T19:16:26.686Z,98887.97
2022-12-11T19:18:54.093Z,98890.16
2022-12-11T19:21:20.696Z,98891.72
2022-12-11T19:23:47.755Z,98890.16
2022-12-11T19:26:17.643Z,98893.50
2022-12-11T19:28:44.665Z,98899.50
2022-12-11T19:31:13.240Z,98901.00
2022-12-11T19:33:41.351Z,98907.94
2022-12-11T19:36:16.531Z,98905.31
2022-12-11T19:38:44.419Z,98906.78
2022-12-11T19:41:16.812Z,98922.25
2022-12-11T19:43:43.745Z,98904.81
2022-12-11T19:46:10.979Z,98904.38
2022-12-11T19:48:38.429Z,98908.78
2022-12-11T19:51:07.560Z,98902.84
2022-12-11T19:53:35.363Z,98900.41
2022-12-11T19:56:02.219Z,98894.31
2022-12-11T19:58:29.152Z,98895.44
2022-12-11T20:00:55.720Z,98897.31
2022-12-11T20:03:22.901Z,98896.59
2022-12-11T20:05:49.418Z,98899.91
2022-12-11T20:08:46.276Z,98897.59
2022-12-11T20:11:07.308Z,98905.06
2022-12-11T20:13:33.963Z,98907.44
2022-12-11T20:16:01.309Z,98907.50
2022-12-11T20:18:27.843Z,98906.47
2022-12-11T20:20:54.329Z,98915.75
2022-12-11T20:23:20.824Z,98921.50
2022-12-11T20:25:47.433Z,98925.94
2022-12-11T20:28:15.103Z,98922.06
2022-12-11T20:30:41.636Z,98932.59
2022-12-11T20:33:08.376Z,98934.25
2022-12-11T20:35:34.908Z,98930.94
2022-12-11T20:38:01.799Z,98935.91
2022-12-11T20:40:28.926Z,98932.88
2022-12-11T20:42:55.570Z,98936.72
2022-12-11T20:45:22.153Z,98932.81
2022-12-11T20:47:48.731Z,98941.22
2022-12-11T20:50:15.865Z,98936.59
2022-12-11T20:52:42.517Z,98936.72
2022-12-11T20:55:10.969Z,98943.81
2022-12-11T20:57:42.004Z,98936.78
2022-12-11T21:00:12.368Z,98942.44
2022-12-11T21:02:39.622Z,98933.06
2022-12-11T21:05:06.657Z,98938.78
2022-12-11T21:07:33.229Z,98944.59
2022-12-11T21:09:59.740Z,98952.31
2022-12-11T21:12:31.328Z,98956.47
2022-12-11T21:14:58.416Z,98954.63
2022-12-11T21:17:24.971Z,98955.53
2022-12-11T21:19:51.557Z,98965.75
2022-12-11T21:22:18.167Z,98967.22
2022-12-11T21:24:44.656Z,98969.72
2022-12-11T21:27:11.301Z,98968.09
2022-12-11T21:29:38.002Z,98970.69
2022-12-11T21:32:04.991Z,98974.16
2022-12-11T21:34:31.736Z,98979.34
2022-12-11T21:36:58.334Z,98986.19
2022-12-11T21:39:26.095Z,98987.00
2022-12-11T21:41:52.901Z,98992.13
2022-12-11T21:47:06.103Z,99002.81
2022-12-11T21:49:32.753Z,99005.47
2022-12-11T21:51:59.405Z,99008.50
2022-12-11T21:54:26.081Z,99004.59
2022-12-11T21:56:54.139Z,99004.31
2022-12-11T21:59:20.689Z,99005.19
2022-12-11T22:01:47.277Z,99013.50
2022-12-11T22:04:15.644Z,99021.03
2022-12-11T22:06:43.648Z,99029.88
2022-12-11T22:09:13.037Z,99029.66
2022-12-11T22:11:40.501Z,99029.59
2022-12-11T22:14:07.515Z,99030.22
2022-12-11T22:16:35.376Z,99025.19
2022-12-11T22:19:02.037Z,99026.19
2022-12-11T22:21:29.099Z,99035.81
2022-12-11T22:23:56.101Z,99044.47
2022-12-11T22:26:26.000Z,99036.22
2022-12-11T22:28:53.596Z,99028.84
2022-12-11T22:31:23.141Z,99040.56
2022-12-11T22:33:51.184Z,99040.84
2022-12-11T22:36:18.986Z,99056.97
2022-12-11T22:38:45.936Z,99054.81
2022-12-11T22:41:29.947Z,99053.56
2022-12-11T22:43:57.632Z,99063.22
2022-12-11T22:46:27.853Z,99066.38
2022-12-11T22:48:55.142Z,99065.66
2022-12-11T22:51:22.777Z,99067.31
2022-12-11T22:53:49.415Z,99059.25
2022-12-11T22:56:16.536Z,99077.28
2022-12-11T22:58:43.224Z,99076.34
2022-12-11T23:01:35.966Z,99080.50
2022-12-11T23:04:02.614Z,99076.59
2022-12-11T23:06:29.224Z,99078.09
2022-12-11T23:08:59.904Z,99075.16
2022-12-11T23:11:29.642Z,99074.63
2022-12-11T23:13:56.533Z,99076.88
2022-12-11T23:16:25.113Z,99086.00
2022-12-11T23:18:52.534Z,99084.25
2022-12-11T23:21:22.791Z,99072.41
2022-12-11T23:23:49.663Z,99076.81
2022-12-11T23:26:18.855Z,99074.63
2022-12-11T23:28:46.391Z,99075.31
2022-12-11T23:31:13.849Z,99084.88
2022-12-11T23:33:40.617Z,99081.31
2022-12-11T23:36:07.879Z,99072.00
2022-12-11T23:38:34.554Z,99071.69
2022-12-11T23:41:02.768Z,99065.69
2022-12-11T23:43:29.315Z,99066.91
2022-12-11T23:45:55.939Z,99060.69
2022-12-11T23:48:22.577Z,99051.44
2022-12-11T23:50:49.295Z,99056.66
2022-12-11T23:53:15.828Z,99050.72
2022-12-11T23:55:44.841Z,99044.03
2022-12-11T23:58:11.794Z,99032.97
